Time;durP1;ratioP1;P1;durP2;ratioP2;P2;SDS_P1;SDS_P2;PMS_P1;PMS_P2;Temp;Humidity;BMP_temperature;BMP_pressure;BME280_temperature;BME280_humidity;BME280_pressure;Samples;Min_cycle;Max_cycle;Signal;HPM_P1;HPM_P2
2023/10/28 00:00:17;;;;;;;;;;;10.60;99.90;;;;;;5107621;28;19919;-70
2023/10/28 00:02:45;;;;;;;;;;;10.60;99.90;;;;;;5101506;28;19999;-70
2023/10/28 00:05:11;;;;;;;;;;;10.60;99.90;;;;;;5108925;28;19915;-70
2023/10/28 00:07:37;;;;;;;;;;;10.60;99.90;;;;;;5108384;28;19908;-70
2023/10/28 00:10:02;;;;;;;;;;;10.60;99.90;;;;;;5108793;28;19919;-70
2023/10/28 00:12:28;;;;;;;;;;;10.60;99.90;;;;;;5107620;28;19937;-70
2023/10/28 00:14:54;;;;;;;;;;;10.60;99.90;;;;;;5114677;27;19938;-70
2023/10/28 00:17:19;;;;;;;;;;;10.60;99.90;;;;;;5106961;27;19912;-70
2023/10/28 00:19:46;;;;;;;;;;;10.70;99.90;;;;;;5103816;28;20539;-70
2023/10/28 00:22:12;;;;;;;;;;;10.60;99.90;;;;;;5104601;28;20384;-70
2023/10/28 00:24:38;;;;;;;;;;;10.70;99.90;;;;;;5111689;28;19923;-70
2023/10/28 00:27:04;;;;;;;;;;;10.70;99.90;;;;;;5104622;27;19912;-70
2023/10/28 00:29:29;;;;;;;;;;;10.70;99.90;;;;;;5107075;28;19981;-70
2023/10/28 00:31:55;;;;;;;;;;;10.70;99.90;;;;;;5108139;28;19991;-70
2023/10/28 00:34:20;;;;;;;;;;;10.70;99.90;;;;;;5108074;28;19912;-70
2023/10/28 00:36:46;;;;;;;;;;;10.70;99.90;;;;;;5104575;28;20238;-70
2023/10/28 00:39:12;;;;;;;;;;;10.60;99.90;;;;;;5104328;28;19965;-70
2023/10/28 00:41:37;;;;;;;;;;;10.70;99.90;;;;;;5104724;28;19911;-70
2023/10/28 00:44:03;;;;;;;;;;;10.60;99.90;;;;;;5122787;27;19916;-70
2023/10/28 00:46:28;;;;;;;;;;;10.70;99.90;;;;;;5119827;27;19986;-70
2023/10/28 00:48:54;;;;;;;;;;;10.60;99.90;;;;;;5114157;27;19952;-70
2023/10/28 00:51:20;;;;;;;;;;;10.70;99.90;;;;;;5106708;28;19908;-70
2023/10/28 00:53:45;;;;;;;;;;;10.70;99.90;;;;;;5104074;28;19908;-70
2023/10/28 00:56:12;;;;;;;;;;;10.70;99.90;;;;;;5114085;28;19912;-70
2023/10/28 00:58:38;;;;;;;;;;;10.70;99.90;;;;;;5116550;28;19920;-70
2023/10/28 01:01:05;;;;;;;;;;;10.70;99.90;;;;;;5110478;27;19915;-70
2023/10/28 01:03:31;;;;;;;;;;;10.60;99.90;;;;;;5107408;28;19947;-70
2023/10/28 01:05:57;;;;;;;;;;;10.60;99.90;;;;;;5108338;28;19962;-70
2023/10/28 01:08:22;;;;;;;;;;;10.60;99.90;;;;;;5101462;28;19919;-70
2023/10/28 01:10:48;;;;;;;;;;;10.60;99.90;;;;;;5113032;27;19911;-70
2023/10/28 01:13:13;;;;;;;;;;;10.70;99.90;;;;;;5113980;28;19912;-70
2023/10/28 01:15:39;;;;;;;;;;;10.60;99.90;;;;;;5108410;28;19911;-70
2023/10/28 01:18:05;;;;;;;;;;;10.60;99.90;;;;;;5106347;28;19919;-70
2023/10/28 01:20:31;;;;;;;;;;;10.60;99.90;;;;;;5116165;28;19964;-70
2023/10/28 01:22:58;;;;;;;;;;;10.70;99.90;;;;;;5116551;27;19916;-70
2023/10/28 01:25:25;;;;;;;;;;;10.70;99.90;;;;;;5109340;28;19912;-70
2023/10/28 01:27:50;;;;;;;;;;;10.70;99.90;;;;;;5109812;28;19957;-70
2023/10/28 01:30:16;;;;;;;;;;;10.70;99.90;;;;;;5119896;27;19912;-70
2023/10/28 01:32:42;;;;;;;;;;;10.70;99.90;;;;;;5117569;27;20394;-70
2023/10/28 01:35:12;;;;;;;;;;;10.70;99.90;;;;;;5122252;27;20092;-70
2023/10/28 01:37:38;;;;;;;;;;;10.70;99.90;;;;;;5112143;27;19922;-70
2023/10/28 01:40:12;;;;;;;;;;;10.70;99.90;;;;;;5117130;27;19915;-70
2023/10/28 01:42:37;;;;;;;;;;;10.70;99.90;;;;;;5122431;27;20004;-70
2023/10/28 01:45:03;;;;;;;;;;;10.70;99.90;;;;;;5123102;27;19972;-70
2023/10/28 01:47:29;;;;;;;;;;;10.70;99.90;;;;;;5104430;27;19908;-70
2023/10/28 01:49:54;;;;;;;;;;;10.70;99.90;;;;;;5117809;27;19908;-70
2023/10/28 01:52:20;;;;;;;;;;;10.70;99.90;;;;;;5119454;27;20088;-70
2023/10/28 01:54:45;;;;;;;;;;;10.70;99.90;;;;;;5108028;28;20499;-70
2023/10/28 01:57:11;;;;;;;;;;;10.70;99.90;;;;;;5111161;28;20257;-70
2023/10/28 01:59:37;;;;;;;;;;;10.70;99.90;;;;;;5110360;28;19927;-70
2023/10/28 02:02:03;;;;;;;;;;;10.70;99.90;;;;;;5119521;27;19915;-70
2023/10/28 02:04:29;;;;;;;;;;;10.70;99.90;;;;;;5102245;28;20288;-70
2023/10/28 02:06:55;;;;;;;;;;;10.70;99.90;;;;;;5105871;28;20357;-70
2023/10/28 02:09:20;;;;;;;;;;;10.70;99.90;;;;;;5090912;27;19973;-70
2023/10/28 02:11:47;;;;;;;;;;;10.70;99.90;;;;;;5110601;28;19957;-70
2023/10/28 02:14:13;;;;;;;;;;;10.70;99.90;;;;;;5118597;27;19918;-70
2023/10/28 02:16:39;;;;;;;;;;;10.70;99.90;;;;;;5117584;27;19912;-70
2023/10/28 02:19:05;;;;;;;;;;;10.70;99.90;;;;;;5110700;28;19998;-70
2023/10/28 02:21:31;;;;;;;;;;;10.70;99.90;;;;;;5110292;28;20392;-70
2023/10/28 02:23:57;;;;;;;;;;;10.70;99.90;;;;;;5118564;27;20325;-70
2023/10/28 02:26:22;;;;;;;;;;;10.70;99.90;;;;;;5118376;27;20321;-70
2023/10/28 02:28:48;;;;;;;;;;;10.70;99.90;;;;;;5113992;27;19911;-70
2023/10/28 02:31:13;;;;;;;;;;;10.70;99.90;;;;;;5121658;27;19964;-70
2023/10/28 02:33:39;;;;;;;;;;;10.70;99.90;;;;;;5116835;27;19943;-70
2023/10/28 02:36:05;;;;;;;;;;;10.70;99.90;;;;;;5111022;27;19912;-70
2023/10/28 02:38:31;;;;;;;;;;;10.70;99.90;;;;;;5102000;28;19911;-70
2023/10/28 02:40:57;;;;;;;;;;;10.70;99.90;;;;;;5108634;28;19916;-70
2023/10/28 02:43:23;;;;;;;;;;;10.70;99.90;;;;;;5109371;28;19965;-70
2023/10/28 02:45:48;;;;;;;;;;;10.70;99.90;;;;;;5110117;28;19908;-70
2023/10/28 02:48:14;;;;;;;;;;;10.70;99.90;;;;;;5100080;28;19908;-70
2023/10/28 02:50:39;;;;;;;;;;;10.80;99.90;;;;;;5106397;28;20380;-70
2023/10/28 02:53:05;;;;;;;;;;;10.70;99.90;;;;;;5103028;28;19994;-70
2023/10/28 02:55:30;;;;;;;;;;;10.70;99.90;;;;;;5108324;28;19998;-70
2023/10/28 02:57:56;;;;;;;;;;;10.80;99.90;;;;;;5108059;28;19918;-70
2023/10/28 03:00:22;;;;;;;;;;;10.80;99.90;;;;;;5108139;28;19920;-70
2023/10/28 03:02:48;;;;;;;;;;;10.70;99.90;;;;;;5109671;28;20453;-70
2023/10/28 03:05:14;;;;;;;;;;;10.80;99.90;;;;;;5093099;28;20507;-70
2023/10/28 03:07:41;;;;;;;;;;;10.80;99.90;;;;;;5109346;28;19912;-70
2023/10/28 03:10:06;;;;;;;;;;;10.70;99.90;;;;;;5117026;27;19947;-70
2023/10/28 03:12:32;;;;;;;;;;;10.70;99.90;;;;;;5112675;27;20392;-70
2023/10/28 03:14:58;;;;;;;;;;;10.70;99.90;;;;;;5116073;27;20403;-70
2023/10/28 03:17:24;;;;;;;;;;;10.70;99.90;;;;;;5117804;27;19918;-70
2023/10/28 03:19:51;;;;;;;;;;;10.80;99.90;;;;;;5109728;28;19911;-70
2023/10/28 03:22:16;;;;;;;;;;;10.80;99.90;;;;;;5107690;28;20382;-70
2023/10/28 03:24:42;;;;;;;;;;;10.70;99.90;;;;;;5114049;27;19912;-70
2023/10/28 03:27:07;;;;;;;;;;;10.70;99.90;;;;;;5105076;28;19912;-70
2023/10/28 03:29:33;;;;;;;;;;;10.70;99.90;;;;;;5116360;27;20273;-70
2023/10/28 03:31:59;;;;;;;;;;;10.70;99.90;;;;;;5109399;27;19947;-70
2023/10/28 03:34:24;;;;;;;;;;;10.70;99.90;;;;;;5115918;27;19914;-70
2023/10/28 03:36:50;;;;;;;;;;;10.70;99.90;;;;;;5105085;28;19962;-70
2023/10/28 03:39:17;;;;;;;;;;;10.70;99.90;;;;;;5105298;28;20006;-70
2023/10/28 03:41:44;;;;;;;;;;;10.70;99.90;;;;;;5109256;28;19908;-70
2023/10/28 03:44:10;;;;;;;;;;;10.70;99.90;;;;;;5117421;27;19965;-70
2023/10/28 03:46:36;;;;;;;;;;;10.70;99.90;;;;;;5099053;28;19916;-70
2023/10/28 03:49:01;;;;;;;;;;;10.70;99.90;;;;;;5108169;28;20761;-70
2023/10/28 03:51:27;;;;;;;;;;;10.70;99.90;;;;;;5115566;27;20674;-70
2023/10/28 03:53:53;;;;;;;;;;;10.70;99.90;;;;;;5096630;28;19965;-70
2023/10/28 03:56:18;;;;;;;;;;;10.70;99.90;;;;;;5105398;28;19912;-70
2023/10/28 03:58:44;;;;;;;;;;;10.70;99.90;;;;;;5108497;28;19920;-70
2023/10/28 04:01:10;;;;;;;;;;;10.70;99.90;;;;;;5108570;28;20032;-70
2023/10/28 04:03:35;;;;;;;;;;;10.70;99.90;;;;;;5094193;27;19909;-70
2023/10/28 04:06:01;;;;;;;;;;;10.70;99.90;;;;;;5100305;27;19912;-70
2023/10/28 04:08:27;;;;;;;;;;;10.70;99.90;;;;;;5099642;28;19912;-70
2023/10/28 04:10:52;;;;;;;;;;;10.70;99.90;;;;;;5115585;27;19915;-70
2023/10/28 04:13:18;;;;;;;;;;;10.70;99.90;;;;;;5116541;27;19918;-70
2023/10/28 04:15:44;;;;;;;;;;;10.70;99.90;;;;;;5117132;27;20357;-70
2023/10/28 04:18:10;;;;;;;;;;;10.70;99.90;;;;;;5108512;28;19908;-70
2023/10/28 04:20:37;;;;;;;;;;;10.70;99.90;;;;;;5117048;27;20193;-70
2023/10/28 04:23:03;;;;;;;;;;;10.70;99.90;;;;;;5115894;27;19912;-69
2023/10/28 04:25:28;;;;;;;;;;;10.70;99.90;;;;;;5108036;28;20268;-69
2023/10/28 04:27:54;;;;;;;;;;;10.70;99.90;;;;;;5108266;28;19958;-70
2023/10/28 04:30:20;;;;;;;;;;;10.70;99.90;;;;;;5107744;27;20375;-70
2023/10/28 04:32:46;;;;;;;;;;;10.70;99.90;;;;;;5108457;28;19911;-70
2023/10/28 04:35:11;;;;;;;;;;;10.70;99.90;;;;;;5108406;28;19912;-70
2023/10/28 04:37:37;;;;;;;;;;;10.70;99.90;;;;;;5113844;27;21159;-70
2023/10/28 04:40:05;;;;;;;;;;;10.70;99.90;;;;;;5117926;27;19911;-70
2023/10/28 04:42:31;;;;;;;;;;;10.70;99.90;;;;;;5119499;27;19918;-70
2023/10/28 04:44:57;;;;;;;;;;;10.70;99.90;;;;;;5120580;27;19920;-70
2023/10/28 04:47:24;;;;;;;;;;;10.70;99.90;;;;;;5117241;28;19918;-70
2023/10/28 04:49:49;;;;;;;;;;;10.70;99.90;;;;;;5115238;27;19991;-70
2023/10/28 04:52:15;;;;;;;;;;;10.70;99.90;;;;;;5107771;28;20096;-70
2023/10/28 04:54:40;;;;;;;;;;;10.70;99.90;;;;;;5107725;28;19911;-70
2023/10/28 04:57:06;;;;;;;;;;;10.70;99.90;;;;;;5108255;28;19911;-70
2023/10/28 04:59:31;;;;;;;;;;;10.70;99.90;;;;;;5108612;28;20066;-70
2023/10/28 05:01:57;;;;;;;;;;;10.70;99.90;;;;;;5119400;27;20480;-70
2023/10/28 05:04:27;;;;;;;;;;;10.70;99.90;;;;;;5110750;28;19924;-70
2023/10/28 05:06:53;;;;;;;;;;;10.70;99.90;;;;;;5105280;28;20350;-70
2023/10/28 05:09:20;;;;;;;;;;;10.70;99.90;;;;;;5111167;28;19919;-70
2023/10/28 05:11:56;;;;;;;;;;;10.70;99.90;;;;;;5104079;28;19943;-70
2023/10/28 05:14:21;;;;;;;;;;;10.70;99.90;;;;;;5119986;27;19911;-70
2023/10/28 05:16:47;;;;;;;;;;;10.70;99.90;;;;;;5103737;28;19960;-70
2023/10/28 05:19:13;;;;;;;;;;;10.70;99.90;;;;;;5111746;28;20384;-70
2023/10/28 05:21:38;;;;;;;;;;;10.70;99.90;;;;;;5120244;27;19915;-70
2023/10/28 05:24:04;;;;;;;;;;;10.70;99.90;;;;;;5103384;28;19911;-70
2023/10/28 05:26:29;;;;;;;;;;;10.70;99.90;;;;;;5103070;28;19907;-70
2023/10/28 05:28:57;;;;;;;;;;;10.60;99.90;;;;;;5111485;27;19918;-70
2023/10/28 05:31:24;;;;;;;;;;;10.60;99.90;;;;;;5111487;28;19916;-70
2023/10/28 05:33:50;;;;;;;;;;;10.60;99.90;;;;;;5116325;27;19971;-70
2023/10/28 05:36:16;;;;;;;;;;;10.60;99.90;;;;;;5115618;27;20010;-70
2023/10/28 05:38:42;;;;;;;;;;;10.60;99.90;;;;;;5111506;27;20053;-70
2023/10/28 05:41:09;;;;;;;;;;;10.60;99.90;;;;;;5119970;27;19931;-70
2023/10/28 05:43:34;;;;;;;;;;;10.60;99.90;;;;;;5117300;27;19972;-70
2023/10/28 05:46:00;;;;;;;;;;;10.60;99.90;;;;;;5109959;28;20006;-70
2023/10/28 05:48:25;;;;;;;;;;;10.60;99.90;;;;;;5119144;27;20015;-70
2023/10/28 05:50:52;;;;;;;;;;;10.70;99.90;;;;;;5103300;28;19911;-70
2023/10/28 05:53:18;;;;;;;;;;;10.60;99.90;;;;;;5102802;28;19958;-70
2023/10/28 05:55:43;;;;;;;;;;;10.60;99.90;;;;;;5111326;28;20008;-70
2023/10/28 05:58:09;;;;;;;;;;;10.60;99.90;;;;;;5110908;28;19908;-70
2023/10/28 06:00:34;;;;;;;;;;;10.60;99.90;;;;;;5121611;27;20039;-70
2023/10/28 06:03:00;;;;;;;;;;;10.60;99.90;;;;;;5120514;27;20381;-70
2023/10/28 06:05:25;;;;;;;;;;;10.60;99.90;;;;;;5114378;27;19939;-70
2023/10/28 06:07:51;;;;;;;;;;;10.60;99.90;;;;;;5113655;27;19947;-70
2023/10/28 06:10:16;;;;;;;;;;;10.60;99.90;;;;;;5115029;27;20195;-70
2023/10/28 06:12:44;;;;;;;;;;;10.60;99.90;;;;;;5105536;27;20416;-70
2023/10/28 06:15:11;;;;;;;;;;;10.60;99.90;;;;;;5122829;27;20535;-70
2023/10/28 06:17:37;;;;;;;;;;;10.60;99.90;;;;;;5111139;27;20308;-70
2023/10/28 06:20:05;;;;;;;;;;;10.70;99.90;;;;;;5110853;28;19928;-70
2023/10/28 06:22:32;;;;;;;;;;;10.60;99.90;;;;;;5119023;27;19930;-70
2023/10/28 06:24:57;;;;;;;;;;;10.70;99.90;;;;;;5109220;28;19959;-70
2023/10/28 06:27:23;;;;;;;;;;;10.70;99.90;;;;;;5109421;28;19954;-70
2023/10/28 06:29:49;;;;;;;;;;;10.60;99.90;;;;;;5110067;28;19908;-70
2023/10/28 06:32:14;;;;;;;;;;;10.70;99.90;;;;;;5109885;27;19916;-70
2023/10/28 06:34:40;;;;;;;;;;;10.60;99.90;;;;;;5112827;27;19931;-70
2023/10/28 06:37:05;;;;;;;;;;;10.70;99.90;;;;;;5109410;27;20029;-70
2023/10/28 06:39:34;;;;;;;;;;;10.70;99.90;;;;;;5108112;28;19912;-70
2023/10/28 06:42:01;;;;;;;;;;;10.70;99.90;;;;;;5110179;27;19911;-70
2023/10/28 06:44:27;;;;;;;;;;;10.60;99.90;;;;;;5116690;27;19983;-70
2023/10/28 06:46:52;;;;;;;;;;;10.60;99.90;;;;;;5114796;27;19907;-70
2023/10/28 06:49:18;;;;;;;;;;;10.60;99.90;;;;;;5108736;27;20368;-70
2023/10/28 06:51:43;;;;;;;;;;;10.60;99.90;;;;;;5105221;27;19915;-70
2023/10/28 06:54:09;;;;;;;;;;;10.60;99.90;;;;;;5109748;27;19965;-70
2023/10/28 06:56:34;;;;;;;;;;;10.60;99.90;;;;;;5108918;28;19911;-70
2023/10/28 06:59:00;;;;;;;;;;;10.60;99.90;;;;;;5109017;28;19947;-70
2023/10/28 07:01:26;;;;;;;;;;;10.60;99.90;;;;;;5108461;27;20010;-70
2023/10/28 07:03:52;;;;;;;;;;;10.70;99.90;;;;;;5104922;27;19911;-70
2023/10/28 07:06:17;;;;;;;;;;;10.60;99.90;;;;;;5113351;27;19916;-70
2023/10/28 07:08:46;;;;;;;;;;;10.60;99.90;;;;;;5108927;28;19919;-70
2023/10/28 07:11:12;;;;;;;;;;;10.70;99.90;;;;;;5109339;28;19922;-70
2023/10/28 07:13:37;;;;;;;;;;;10.70;99.90;;;;;;5099689;28;20328;-70
2023/10/28 07:16:03;;;;;;;;;;;10.70;99.90;;;;;;5109571;28;19912;-70
2023/10/28 07:18:32;;;;;;;;;;;10.70;99.90;;;;;;5109041;28;20379;-70
2023/10/28 07:20:58;;;;;;;;;;;10.70;99.90;;;;;;5100926;27;20455;-70
2023/10/28 07:23:26;;;;;;;;;;;10.70;99.90;;;;;;5107901;27;19915;-70
2023/10/28 07:25:55;;;;;;;;;;;10.70;99.90;;;;;;5109159;28;19973;-70
2023/10/28 07:28:21;;;;;;;;;;;10.70;99.90;;;;;;5125371;27;20010;-70
2023/10/28 07:30:48;;;;;;;;;;;10.80;99.90;;;;;;5108263;28;19955;-70
2023/10/28 07:33:14;;;;;;;;;;;10.80;99.90;;;;;;5100745;28;19995;-70
2023/10/28 07:35:50;;;;;;;;;;;10.80;99.90;;;;;;5109109;28;20331;-70
2023/10/28 07:38:16;;;;;;;;;;;10.80;99.90;;;;;;5125403;27;19938;-70
2023/10/28 07:40:42;;;;;;;;;;;10.80;99.90;;;;;;5109199;27;20304;-70
2023/10/28 07:43:10;;;;;;;;;;;10.80;99.90;;;;;;5109316;27;19911;-70
2023/10/28 07:45:35;;;;;;;;;;;10.80;99.90;;;;;;5108677;28;19915;-70
2023/10/28 07:48:01;;;;;;;;;;;10.80;99.90;;;;;;5107667;28;19911;-70
2023/10/28 07:50:26;;;;;;;;;;;10.90;99.90;;;;;;5107599;28;19912;-70
2023/10/28 07:52:52;;;;;;;;;;;10.90;99.90;;;;;;5092759;28;19939;-70
2023/10/28 07:55:17;;;;;;;;;;;10.90;99.90;;;;;;5113409;27;19918;-70
2023/10/28 07:57:45;;;;;;;;;;;10.90;99.90;;;;;;5116580;27;20424;-70
2023/10/28 08:00:11;;;;;;;;;;;11.00;99.90;;;;;;5109031;28;19923;-70
2023/10/28 08:02:37;;;;;;;;;;;11.00;99.90;;;;;;5108316;28;19912;-70
2023/10/28 08:05:04;;;;;;;;;;;11.00;99.90;;;;;;5102905;28;19922;-70
2023/10/28 08:07:30;;;;;;;;;;;11.00;99.90;;;;;;5106872;28;20291;-70
2023/10/28 08:09:56;;;;;;;;;;;11.10;99.90;;;;;;5120310;27;19931;-70
2023/10/28 08:12:25;;;;;;;;;;;11.10;99.90;;;;;;5111510;27;20002;-70
2023/10/28 08:14:50;;;;;;;;;;;11.10;99.90;;;;;;5100127;28;19946;-70
2023/10/28 08:17:16;;;;;;;;;;;11.10;99.90;;;;;;5109274;27;19951;-70
2023/10/28 08:19:42;;;;;;;;;;;11.10;99.90;;;;;;5107633;28;20376;-70
2023/10/28 08:22:07;;;;;;;;;;;11.10;99.90;;;;;;5108547;28;19912;-70
2023/10/28 08:24:33;;;;;;;;;;;11.10;99.90;;;;;;5106598;28;19916;-70
2023/10/28 08:26:58;;;;;;;;;;;11.20;99.90;;;;;;5113501;27;19911;-70
2023/10/28 08:29:24;;;;;;;;;;;11.20;99.90;;;;;;5102513;27;19912;-70
2023/10/28 08:31:50;;;;;;;;;;;11.20;99.90;;;;;;5101693;28;19969;-70
2023/10/28 08:34:16;;;;;;;;;;;11.20;99.90;;;;;;5097024;28;20027;-70
2023/10/28 08:36:41;;;;;;;;;;;11.20;99.90;;;;;;5108793;27;19922;-70
2023/10/28 08:39:07;;;;;;;;;;;11.20;99.90;;;;;;5101091;28;20241;-70
2023/10/28 08:41:34;;;;;;;;;;;11.30;99.90;;;;;;5110106;28;19968;-70
2023/10/28 08:44:03;;;;;;;;;;;11.30;99.90;;;;;;5098716;28;20270;-70
2023/10/28 08:46:30;;;;;;;;;;;11.20;99.90;;;;;;5106759;28;19912;-70
2023/10/28 08:48:57;;;;;;;;;;;11.30;99.90;;;;;;5111832;28;19954;-70
2023/10/28 08:51:23;;;;;;;;;;;11.30;99.90;;;;;;5118583;27;19908;-70
2023/10/28 08:53:50;;;;;;;;;;;11.30;99.90;;;;;;5102931;28;19939;-70
2023/10/28 08:56:17;;;;;;;;;;;11.30;99.90;;;;;;5102512;28;20424;-70
2023/10/28 08:58:45;;;;;;;;;;;11.30;99.90;;;;;;5097270;28;20380;-70
2023/10/28 09:01:11;;;;;;;;;;;11.40;99.90;;;;;;5106728;28;19984;-70
2023/10/28 09:03:38;;;;;;;;;;;11.40;99.90;;;;;;5100072;28;19920;-70
2023/10/28 09:06:04;;;;;;;;;;;11.40;99.90;;;;;;5108629;27;19970;-70
2023/10/28 09:08:29;;;;;;;;;;;11.50;99.90;;;;;;5112193;27;19915;-70
2023/10/28 09:10:56;;;;;;;;;;;11.50;99.90;;;;;;5106392;28;19912;-70
2023/10/28 09:13:23;;;;;;;;;;;11.60;99.90;;;;;;5105998;28;19930;-70
2023/10/28 09:15:50;;;;;;;;;;;11.60;99.90;;;;;;5110270;28;19914;-70
2023/10/28 09:18:16;;;;;;;;;;;11.60;99.90;;;;;;5101467;28;19912;-70
2023/10/28 09:20:42;;;;;;;;;;;11.60;99.90;;;;;;5109940;28;19923;-70
2023/10/28 09:23:08;;;;;;;;;;;11.60;99.90;;;;;;5114586;27;19912;-70
2023/10/28 09:25:34;;;;;;;;;;;11.60;99.90;;;;;;5112936;28;20022;-70
2023/10/28 09:28:00;;;;;;;;;;;11.60;99.90;;;;;;5114724;27;19911;-70
2023/10/28 09:30:25;;;;;;;;;;;11.70;99.90;;;;;;5104579;28;19916;-70
2023/10/28 09:32:55;;;;;;;;;;;11.70;99.90;;;;;;5109497;28;19912;-70
2023/10/28 09:35:21;;;;;;;;;;;11.70;99.90;;;;;;5102271;27;19947;-70
2023/10/28 09:37:46;;;;;;;;;;;11.70;99.90;;;;;;5105545;28;19912;-70
2023/10/28 09:40:12;;;;;;;;;;;11.70;99.90;;;;;;5106730;28;20003;-70
2023/10/28 09:42:38;;;;;;;;;;;11.80;99.90;;;;;;5106262;27;20269;-70
2023/10/28 09:45:05;;;;;;;;;;;11.70;99.90;;;;;;5096709;28;19938;-70
2023/10/28 09:47:34;;;;;;;;;;;11.80;99.90;;;;;;5109475;28;19969;-70
2023/10/28 09:50:00;;;;;;;;;;;11.80;99.90;;;;;;5119142;27;19964;-69
2023/10/28 09:52:29;;;;;;;;;;;11.80;99.90;;;;;;5113056;27;19912;-69
2023/10/28 09:54:59;;;;;;;;;;;11.80;99.90;;;;;;5109690;28;19915;-69
2023/10/28 09:57:24;;;;;;;;;;;11.80;99.90;;;;;;5109698;28;19918;-69
2023/10/28 09:59:51;;;;;;;;;;;11.90;99.90;;;;;;5109049;28;19916;-69
2023/10/28 10:02:16;;;;;;;;;;;11.90;99.90;;;;;;5107168;28;19915;-69
2023/10/28 10:04:45;;;;;;;;;;;11.90;99.90;;;;;;5107323;28;19969;-69
2023/10/28 10:07:10;;;;;;;;;;;11.90;99.90;;;;;;5109672;27;19915;-69
2023/10/28 10:09:39;;;;;;;;;;;11.90;99.90;;;;;;5108949;28;19919;-69
2023/10/28 10:12:05;;;;;;;;;;;12.00;99.90;;;;;;5109757;28;19911;-69
2023/10/28 10:14:31;;;;;;;;;;;12.00;99.90;;;;;;5110297;27;19964;-69
2023/10/28 10:17:02;;;;;;;;;;;12.00;99.90;;;;;;5117232;27;19998;-69
2023/10/28 10:19:33;;;;;;;;;;;12.00;99.90;;;;;;5118922;27;19912;-68
2023/10/28 10:22:02;;;;;;;;;;;12.00;99.90;;;;;;5117487;27;19912;-69
2023/10/28 10:24:28;;;;;;;;;;;12.00;99.90;;;;;;5110147;27;19916;-69
2023/10/28 10:26:55;;;;;;;;;;;12.00;99.90;;;;;;5110175;28;20390;-69
2023/10/28 10:29:20;;;;;;;;;;;12.00;99.90;;;;;;5106584;28;19915;-69
2023/10/28 10:31:48;;;;;;;;;;;12.10;99.90;;;;;;5106717;27;20380;-69
2023/10/28 10:34:29;;;;;;;;;;;12.10;99.90;;;;;;5114436;27;19976;-69
2023/10/28 10:36:55;;;;;;;;;;;12.10;99.90;;;;;;5102474;28;20340;-69
2023/10/28 10:39:20;;;;;;;;;;;12.10;99.90;;;;;;5118145;27;19919;-69
2023/10/28 10:41:47;;;;;;;;;;;12.10;99.90;;;;;;5109458;28;19912;-69
2023/10/28 10:44:28;;;;;;;;;;;12.10;99.90;;;;;;5111037;27;19919;-69
2023/10/28 10:46:56;;;;;;;;;;;12.20;99.90;;;;;;5110276;27;19955;-69
2023/10/28 10:49:21;;;;;;;;;;;12.20;99.90;;;;;;5109077;28;20011;-69
2023/10/28 10:51:47;;;;;;;;;;;12.20;99.90;;;;;;5109372;28;19998;-69
2023/10/28 10:54:12;;;;;;;;;;;12.20;99.90;;;;;;5104963;28;19949;-69
2023/10/28 10:56:38;;;;;;;;;;;12.30;99.90;;;;;;5108729;28;19912;-69
2023/10/28 10:59:03;;;;;;;;;;;12.30;99.90;;;;;;5108912;28;19916;-69
2023/10/28 11:01:29;;;;;;;;;;;12.30;99.90;;;;;;5102931;28;19947;-69
2023/10/28 11:03:55;;;;;;;;;;;12.40;99.90;;;;;;5107864;28;19911;-69
2023/10/28 11:06:21;;;;;;;;;;;12.40;99.90;;;;;;5109116;27;19911;-69
2023/10/28 11:08:47;;;;;;;;;;;12.50;99.90;;;;;;5105094;28;19919;-69
2023/10/28 11:11:13;;;;;;;;;;;12.50;99.90;;;;;;5104234;28;20360;-69
2023/10/28 11:13:39;;;;;;;;;;;12.60;99.90;;;;;;5109710;27;19912;-69
2023/10/28 11:16:04;;;;;;;;;;;12.60;99.90;;;;;;5107776;28;20200;-69
2023/10/28 11:18:30;;;;;;;;;;;12.60;99.90;;;;;;5106067;28;20292;-69
2023/10/28 11:20:56;;;;;;;;;;;12.70;99.90;;;;;;5100192;28;19912;-69
2023/10/28 11:23:22;;;;;;;;;;;12.70;99.90;;;;;;5101020;28;19919;-69
2023/10/28 11:25:49;;;;;;;;;;;12.80;99.90;;;;;;5108159;27;19912;-69
2023/10/28 11:28:14;;;;;;;;;;;12.90;99.90;;;;;;5099077;28;19908;-69
2023/10/28 11:30:48;;;;;;;;;;;12.90;99.90;;;;;;5115541;27;19960;-69
2023/10/28 11:33:14;;;;;;;;;;;13.00;99.90;;;;;;5101583;28;19916;-69
2023/10/28 11:35:40;;;;;;;;;;;13.00;99.90;;;;;;5107989;27;20276;-69
2023/10/28 11:38:06;;;;;;;;;;;13.10;99.90;;;;;;5093308;28;19912;-69
2023/10/28 11:40:33;;;;;;;;;;;13.10;99.90;;;;;;5095950;28;20617;-69
2023/10/28 11:43:02;;;;;;;;;;;13.10;99.90;;;;;;5106799;27;19972;-69
2023/10/28 11:45:28;;;;;;;;;;;13.10;99.90;;;;;;5096750;28;19934;-69
2023/10/28 11:47:53;;;;;;;;;;;13.20;99.90;;;;;;5099410;28;19911;-69
2023/10/28 11:50:19;;;;;;;;;;;13.20;99.90;;;;;;5115895;27;19936;-69
2023/10/28 11:52:45;;;;;;;;;;;13.20;99.90;;;;;;5106804;27;19916;-69
2023/10/28 11:55:11;;;;;;;;;;;13.20;99.90;;;;;;5107078;28;19913;-69
2023/10/28 11:57:36;;;;;;;;;;;13.20;99.90;;;;;;5106769;27;20394;-69
2023/10/28 12:00:04;;;;;;;;;;;13.20;99.90;;;;;;5104949;28;19919;-69
2023/10/28 12:02:30;;;;;;;;;;;13.30;99.90;;;;;;5108564;27;20343;-69
2023/10/28 12:04:55;;;;;;;;;;;13.20;99.90;;;;;;5095462;28;19916;-69
2023/10/28 12:07:21;;;;;;;;;;;13.30;99.90;;;;;;5093535;28;19919;-70
2023/10/28 12:09:47;;;;;;;;;;;13.20;99.90;;;;;;5106048;27;19912;-70
2023/10/28 12:12:12;;;;;;;;;;;13.20;99.90;;;;;;5098825;28;20281;-69
2023/10/28 12:14:38;;;;;;;;;;;13.20;99.90;;;;;;5097264;27;20629;-69
2023/10/28 12:17:04;;;;;;;;;;;13.20;99.90;;;;;;5100574;28;19912;-69
2023/10/28 12:19:29;;;;;;;;;;;13.30;99.90;;;;;;5097427;28;19912;-69
2023/10/28 12:21:55;;;;;;;;;;;13.30;99.90;;;;;;5099411;28;20004;-69
2023/10/28 12:24:21;;;;;;;;;;;13.20;99.90;;;;;;5098873;28;19916;-69
2023/10/28 12:26:47;;;;;;;;;;;13.20;99.90;;;;;;5106775;27;19923;-69
2023/10/28 12:29:13;;;;;;;;;;;13.20;99.90;;;;;;5092284;28;19916;-69
2023/10/28 12:31:39;;;;;;;;;;;13.20;99.90;;;;;;5105788;28;19951;-70
2023/10/28 12:34:04;;;;;;;;;;;13.20;99.90;;;;;;5093932;28;20433;-70
2023/10/28 12:36:30;;;;;;;;;;;13.30;99.90;;;;;;5103538;28;19912;-69
2023/10/28 12:38:55;;;;;;;;;;;13.30;99.90;;;;;;5107074;28;19918;-69
2023/10/28 12:41:21;;;;;;;;;;;13.30;99.90;;;;;;5099568;28;19969;-69
2023/10/28 12:43:47;;;;;;;;;;;13.30;99.90;;;;;;5110224;27;20236;-69
2023/10/28 12:46:12;;;;;;;;;;;13.30;99.90;;;;;;5103937;28;19916;-69
2023/10/28 12:48:38;;;;;;;;;;;13.40;99.90;;;;;;5098697;28;19920;-69
2023/10/28 12:51:03;;;;;;;;;;;13.40;99.90;;;;;;5109718;28;19912;-69
2023/10/28 12:53:29;;;;;;;;;;;13.40;99.90;;;;;;5098588;28;19969;-69
2023/10/28 12:55:55;;;;;;;;;;;13.40;99.90;;;;;;5107450;28;20006;-69
2023/10/28 12:58:21;;;;;;;;;;;13.50;99.90;;;;;;5105224;28;19911;-69
2023/10/28 13:00:46;;;;;;;;;;;13.50;99.90;;;;;;5106470;28;20395;-69
2023/10/28 13:03:13;;;;;;;;;;;13.50;99.90;;;;;;5105908;28;19916;-69
2023/10/28 13:05:38;;;;;;;;;;;13.50;99.90;;;;;;5088629;28;19916;-69
2023/10/28 13:08:04;;;;;;;;;;;13.50;99.90;;;;;;5100269;28;20006;-69
2023/10/28 13:10:29;;;;;;;;;;;13.60;99.90;;;;;;5098343;28;19912;-69
2023/10/28 13:12:55;;;;;;;;;;;13.50;99.90;;;;;;5114128;27;20015;-69
2023/10/28 13:15:23;;;;;;;;;;;13.50;99.90;;;;;;5107888;28;19908;-69
2023/10/28 13:17:49;;;;;;;;;;;13.50;99.90;;;;;;5106236;28;19908;-69
2023/10/28 13:20:14;;;;;;;;;;;13.50;99.90;;;;;;5108991;28;19961;-69
2023/10/28 13:22:43;;;;;;;;;;;13.60;99.90;;;;;;5119294;27;19936;-69
2023/10/28 13:25:08;;;;;;;;;;;13.50;99.90;;;;;;5111003;28;19916;-69
2023/10/28 13:27:35;;;;;;;;;;;13.60;99.90;;;;;;5093386;28;20362;-69
2023/10/28 13:30:04;;;;;;;;;;;13.60;99.90;;;;;;5108221;28;19985;-69
2023/10/28 13:32:30;;;;;;;;;;;13.60;99.90;;;;;;5110466;28;20326;-69
2023/10/28 13:34:56;;;;;;;;;;;13.60;99.90;;;;;;5119399;27;19912;-69
2023/10/28 13:37:21;;;;;;;;;;;13.60;99.90;;;;;;5116560;27;19934;-69
2023/10/28 13:39:47;;;;;;;;;;;13.60;99.90;;;;;;5118963;27;19916;-69
2023/10/28 13:42:13;;;;;;;;;;;13.60;99.90;;;;;;5109454;28;19964;-69
2023/10/28 13:44:39;;;;;;;;;;;13.60;99.90;;;;;;5118072;27;20287;-69
2023/10/28 13:47:04;;;;;;;;;;;13.60;99.90;;;;;;5103895;28;19919;-69
2023/10/28 13:49:32;;;;;;;;;;;13.60;99.90;;;;;;5110610;28;19908;-69
2023/10/28 13:52:00;;;;;;;;;;;13.60;99.90;;;;;;5110848;28;19954;-70
2023/10/28 13:54:27;;;;;;;;;;;13.60;99.90;;;;;;5117553;27;19907;-70
2023/10/28 13:56:53;;;;;;;;;;;13.50;99.90;;;;;;5102516;28;20360;-70
2023/10/28 13:59:19;;;;;;;;;;;13.50;99.90;;;;;;5104195;27;19957;-70
2023/10/28 14:01:44;;;;;;;;;;;13.50;99.90;;;;;;5135936;27;19915;-70
2023/10/28 14:04:11;;;;;;;;;;;13.50;99.90;;;;;;5101745;28;19908;-70
2023/10/28 14:06:37;;;;;;;;;;;13.50;99.90;;;;;;5118004;27;19911;-70
2023/10/28 14:09:03;;;;;;;;;;;13.50;99.90;;;;;;5111106;28;19908;-70